sensor_id;sensor_type;location;lat;lon;timestamp;P1;durP1;ratioP1;P2;durP2;ratioP2
55879;SDS011;41802;51.564;-1.838;2023-07-13T00:00:52;9.70;;;2.67;;
55879;SDS011;41802;51.564;-1.838;2023-07-13T00:03:20;11.33;;;2.30;;
55879;SDS011;41802;51.564;-1.838;2023-07-13T00:05:56;6.97;;;2.30;;
55879;SDS011;41802;51.564;-1.838;2023-07-13T00:08:25;9.00;;;2.42;;
55879;SDS011;41802;51.564;-1.838;2023-07-13T00:10:53;6.47;;;2.05;;
55879;SDS011;41802;51.564;-1.838;2023-07-13T00:13:21;7.15;;;2.13;;
55879;SDS011;41802;51.564;-1.838;2023-07-13T00:15:50;7.57;;;2.00;;
55879;SDS011;41802;51.564;-1.838;2023-07-13T00:18:20;8.50;;;2.30;;
55879;SDS011;41802;51.564;-1.838;2023-07-13T00:20:48;10.05;;;3.17;;
55879;SDS011;41802;51.564;-1.838;2023-07-13T00:23:16;6.90;;;2.47;;
55879;SDS011;41802;51.564;-1.838;2023-07-13T00:25:45;9.68;;;2.45;;
55879;SDS011;41802;51.564;-1.838;2023-07-13T00:28:13;8.40;;;2.17;;
55879;SDS011;41802;51.564;-1.838;2023-07-13T00:30:40;8.88;;;2.22;;
55879;SDS011;41802;51.564;-1.838;2023-07-13T00:33:10;12.13;;;2.38;;
55879;SDS011;41802;51.564;-1.838;2023-07-13T00:35:44;9.38;;;2.30;;
55879;SDS011;41802;51.564;-1.838;2023-07-13T00:38:11;12.15;;;2.28;;
55879;SDS011;41802;51.564;-1.838;2023-07-13T00:40:39;7.10;;;2.20;;
55879;SDS011;41802;51.564;-1.838;2023-07-13T00:43:09;10.95;;;2.65;;
55879;SDS011;41802;51.564;-1.838;2023-07-13T00:48:25;11.52;;;2.70;;
55879;SDS011;41802;51.564;-1.838;2023-07-13T00:50:55;9.57;;;2.28;;
55879;SDS011;41802;51.564;-1.838;2023-07-13T00:53:24;9.97;;;2.90;;
55879;SDS011;41802;51.564;-1.838;2023-07-13T00:55:53;7.57;;;2.40;;
55879;SDS011;41802;51.564;-1.838;2023-07-13T00:58:21;8.30;;;2.70;;
55879;SDS011;41802;51.564;-1.838;2023-07-13T01:00:49;10.15;;;2.70;;
55879;SDS011;41802;51.564;-1.838;2023-07-13T01:03:18;13.55;;;2.88;;
55879;SDS011;41802;51.564;-1.838;2023-07-13T01:05:48;11.07;;;2.93;;
55879;SDS011;41802;51.564;-1.838;2023-07-13T01:08:17;9.63;;;2.67;;
55879;SDS011;41802;51.564;-1.838;2023-07-13T01:10:50;8.88;;;2.30;;
55879;SDS011;41802;51.564;-1.838;2023-07-13T01:13:18;8.07;;;2.33;;
55879;SDS011;41802;51.564;-1.838;2023-07-13T01:15:48;8.70;;;2.70;;
55879;SDS011;41802;51.564;-1.838;2023-07-13T01:18:17;9.90;;;3.27;;
55879;SDS011;41802;51.564;-1.838;2023-07-13T01:20:50;8.27;;;2.38;;
55879;SDS011;41802;51.564;-1.838;2023-07-13T01:23:18;7.85;;;2.60;;
55879;SDS011;41802;51.564;-1.838;2023-07-13T01:25:47;8.23;;;2.25;;
55879;SDS011;41802;51.564;-1.838;2023-07-13T01:28:15;12.82;;;3.38;;
55879;SDS011;41802;51.564;-1.838;2023-07-13T01:30:43;10.37;;;2.57;;
55879;SDS011;41802;51.564;-1.838;2023-07-13T01:33:12;10.13;;;2.70;;
55879;SDS011;41802;51.564;-1.838;2023-07-13T01:35:40;8.73;;;2.42;;
55879;SDS011;41802;51.564;-1.838;2023-07-13T01:38:09;7.18;;;1.77;;
55879;SDS011;41802;51.564;-1.838;2023-07-13T01:40:38;6.50;;;2.03;;
55879;SDS011;41802;51.564;-1.838;2023-07-13T01:43:05;6.10;;;1.83;;
55879;SDS011;41802;51.564;-1.838;2023-07-13T01:45:33;8.35;;;1.90;;
55879;SDS011;41802;51.564;-1.838;2023-07-13T01:48:02;8.73;;;2.63;;
55879;SDS011;41802;51.564;-1.838;2023-07-13T01:50:30;8.65;;;2.20;;
55879;SDS011;41802;51.564;-1.838;2023-07-13T01:52:58;7.88;;;2.20;;
55879;SDS011;41802;51.564;-1.838;2023-07-13T01:55:27;6.40;;;2.23;;
55879;SDS011;41802;51.564;-1.838;2023-07-13T01:57:55;10.00;;;2.67;;
55879;SDS011;41802;51.564;-1.838;2023-07-13T02:00:23;10.40;;;2.20;;
55879;SDS011;41802;51.564;-1.838;2023-07-13T02:02:51;10.32;;;2.28;;
55879;SDS011;41802;51.564;-1.838;2023-07-13T02:05:19;6.43;;;2.08;;
55879;SDS011;41802;51.564;-1.838;2023-07-13T02:07:47;9.73;;;2.57;;
55879;SDS011;41802;51.564;-1.838;2023-07-13T02:10:15;11.65;;;2.47;;
55879;SDS011;41802;51.564;-1.838;2023-07-13T02:12:45;8.18;;;1.90;;
55879;SDS011;41802;51.564;-1.838;2023-07-13T02:15:12;6.75;;;2.05;;
55879;SDS011;41802;51.564;-1.838;2023-07-13T02:17:40;9.77;;;2.85;;
55879;SDS011;41802;51.564;-1.838;2023-07-13T02:20:08;47.23;;;3.87;;
55879;SDS011;41802;51.564;-1.838;2023-07-13T02:22:35;10.43;;;3.30;;
55879;SDS011;41802;51.564;-1.838;2023-07-13T02:25:03;7.22;;;2.72;;
55879;SDS011;41802;51.564;-1.838;2023-07-13T02:27:33;11.20;;;2.38;;
55879;SDS011;41802;51.564;-1.838;2023-07-13T02:30:03;11.13;;;2.35;;
55879;SDS011;41802;51.564;-1.838;2023-07-13T02:32:32;6.77;;;2.20;;
55879;SDS011;41802;51.564;-1.838;2023-07-13T02:35:00;8.57;;;2.33;;
55879;SDS011;41802;51.564;-1.838;2023-07-13T02:37:28;9.55;;;3.03;;
55879;SDS011;41802;51.564;-1.838;2023-07-13T02:39:56;8.75;;;2.58;;
55879;SDS011;41802;51.564;-1.838;2023-07-13T02:42:24;8.80;;;2.40;;
55879;SDS011;41802;51.564;-1.838;2023-07-13T02:44:52;8.57;;;2.70;;
55879;SDS011;41802;51.564;-1.838;2023-07-13T02:47:22;7.93;;;2.70;;
55879;SDS011;41802;51.564;-1.838;2023-07-13T02:49:50;7.30;;;2.67;;
55879;SDS011;41802;51.564;-1.838;2023-07-13T02:52:17;7.55;;;2.67;;
55879;SDS011;41802;51.564;-1.838;2023-07-13T02:54:45;7.43;;;2.53;;
55879;SDS011;41802;51.564;-1.838;2023-07-13T02:57:13;11.00;;;2.93;;
55879;SDS011;41802;51.564;-1.838;2023-07-13T02:59:40;5.40;;;2.28;;
55879;SDS011;41802;51.564;-1.838;2023-07-13T03:02:11;8.35;;;2.38;;
55879;SDS011;41802;51.564;-1.838;2023-07-13T03:04:40;10.70;;;2.85;;
55879;SDS011;41802;51.564;-1.838;2023-07-13T03:07:07;13.10;;;2.67;;
55879;SDS011;41802;51.564;-1.838;2023-07-13T03:09:35;9.03;;;3.03;;
55879;SDS011;41802;51.564;-1.838;2023-07-13T03:12:03;8.60;;;2.63;;
55879;SDS011;41802;51.564;-1.838;2023-07-13T03:14:31;9.10;;;3.15;;
55879;SDS011;41802;51.564;-1.838;2023-07-13T03:17:00;7.53;;;2.60;;
55879;SDS011;41802;51.564;-1.838;2023-07-13T03:19:29;11.25;;;3.63;;
55879;SDS011;41802;51.564;-1.838;2023-07-13T03:21:58;10.83;;;2.67;;
55879;SDS011;41802;51.564;-1.838;2023-07-13T03:24:26;7.32;;;2.53;;
55879;SDS011;41802;51.564;-1.838;2023-07-13T03:26:57;7.95;;;2.95;;
55879;SDS011;41802;51.564;-1.838;2023-07-13T03:29:25;8.32;;;2.75;;
55879;SDS011;41802;51.564;-1.838;2023-07-13T03:31:52;10.05;;;2.45;;
55879;SDS011;41802;51.564;-1.838;2023-07-13T03:34:20;11.13;;;2.73;;
55879;SDS011;41802;51.564;-1.838;2023-07-13T03:36:48;12.00;;;3.10;;
55879;SDS011;41802;51.564;-1.838;2023-07-13T03:39:17;10.20;;;2.35;;
55879;SDS011;41802;51.564;-1.838;2023-07-13T03:41:45;6.65;;;2.42;;
55879;SDS011;41802;51.564;-1.838;2023-07-13T03:44:12;8.88;;;2.60;;
55879;SDS011;41802;51.564;-1.838;2023-07-13T03:46:40;9.30;;;2.47;;
55879;SDS011;41802;51.564;-1.838;2023-07-13T03:49:08;7.22;;;2.63;;
55879;SDS011;41802;51.564;-1.838;2023-07-13T03:51:36;10.35;;;3.30;;
55879;SDS011;41802;51.564;-1.838;2023-07-13T03:54:04;9.18;;;2.75;;
55879;SDS011;41802;51.564;-1.838;2023-07-13T03:56:34;8.30;;;2.47;;
55879;SDS011;41802;51.564;-1.838;2023-07-13T03:59:02;9.17;;;2.60;;
55879;SDS011;41802;51.564;-1.838;2023-07-13T04:01:31;8.55;;;3.08;;
55879;SDS011;41802;51.564;-1.838;2023-07-13T04:04:02;9.50;;;2.67;;
55879;SDS011;41802;51.564;-1.838;2023-07-13T04:06:33;11.38;;;3.10;;
55879;SDS011;41802;51.564;-1.838;2023-07-13T04:09:01;10.93;;;3.10;;
55879;SDS011;41802;51.564;-1.838;2023-07-13T04:11:30;11.00;;;2.90;;
55879;SDS011;41802;51.564;-1.838;2023-07-13T04:14:04;9.57;;;3.03;;
55879;SDS011;41802;51.564;-1.838;2023-07-13T04:16:32;8.63;;;2.65;;
55879;SDS011;41802;51.564;-1.838;2023-07-13T04:19:00;13.05;;;3.08;;
55879;SDS011;41802;51.564;-1.838;2023-07-13T04:21:28;12.40;;;2.88;;
55879;SDS011;41802;51.564;-1.838;2023-07-13T04:23:56;12.47;;;3.47;;
55879;SDS011;41802;51.564;-1.838;2023-07-13T04:26:24;10.10;;;2.50;;
55879;SDS011;41802;51.564;-1.838;2023-07-13T04:28:52;9.32;;;2.42;;
55879;SDS011;41802;51.564;-1.838;2023-07-13T04:31:21;7.50;;;2.33;;
55879;SDS011;41802;51.564;-1.838;2023-07-13T04:33:49;7.93;;;2.38;;
55879;SDS011;41802;51.564;-1.838;2023-07-13T04:36:19;7.40;;;2.67;;
55879;SDS011;41802;51.564;-1.838;2023-07-13T04:38:47;7.10;;;3.08;;
55879;SDS011;41802;51.564;-1.838;2023-07-13T04:41:17;9.18;;;2.83;;
55879;SDS011;41802;51.564;-1.838;2023-07-13T04:43:44;10.10;;;2.88;;
55879;SDS011;41802;51.564;-1.838;2023-07-13T04:46:13;9.90;;;3.28;;
55879;SDS011;41802;51.564;-1.838;2023-07-13T04:48:42;6.90;;;2.80;;
55879;SDS011;41802;51.564;-1.838;2023-07-13T04:51:10;10.65;;;2.65;;
55879;SDS011;41802;51.564;-1.838;2023-07-13T04:53:38;10.43;;;3.00;;
55879;SDS011;41802;51.564;-1.838;2023-07-13T04:56:05;7.70;;;2.67;;
55879;SDS011;41802;51.564;-1.838;2023-07-13T04:58:33;7.90;;;2.30;;
55879;SDS011;41802;51.564;-1.838;2023-07-13T05:01:02;9.60;;;2.67;;
55879;SDS011;41802;51.564;-1.838;2023-07-13T05:03:30;9.85;;;2.58;;
55879;SDS011;41802;51.564;-1.838;2023-07-13T05:06:03;9.23;;;3.08;;
55879;SDS011;41802;51.564;-1.838;2023-07-13T05:08:31;9.85;;;2.55;;
55879;SDS011;41802;51.564;-1.838;2023-07-13T05:10:59;6.55;;;3.20;;
55879;SDS011;41802;51.564;-1.838;2023-07-13T05:13:27;11.23;;;2.90;;
55879;SDS011;41802;51.564;-1.838;2023-07-13T05:15:56;7.20;;;2.22;;
55879;SDS011;41802;51.564;-1.838;2023-07-13T05:18:23;13.40;;;2.85;;
55879;SDS011;41802;51.564;-1.838;2023-07-13T05:20:56;7.70;;;2.10;;
55879;SDS011;41802;51.564;-1.838;2023-07-13T05:23:29;9.07;;;2.28;;
55879;SDS011;41802;51.564;-1.838;2023-07-13T05:25:57;6.83;;;2.23;;
55879;SDS011;41802;51.564;-1.838;2023-07-13T05:28:25;8.48;;;2.72;;
55879;SDS011;41802;51.564;-1.838;2023-07-13T05:30:54;8.07;;;2.75;;
55879;SDS011;41802;51.564;-1.838;2023-07-13T05:33:22;7.90;;;2.58;;
55879;SDS011;41802;51.564;-1.838;2023-07-13T05:35:50;7.95;;;3.22;;
55879;SDS011;41802;51.564;-1.838;2023-07-13T05:38:18;11.37;;;2.97;;
55879;SDS011;41802;51.564;-1.838;2023-07-13T05:40:47;14.00;;;3.25;;
55879;SDS011;41802;51.564;-1.838;2023-07-13T05:43:15;10.45;;;2.65;;
55879;SDS011;41802;51.564;-1.838;2023-07-13T05:45:43;9.23;;;2.67;;
55879;SDS011;41802;51.564;-1.838;2023-07-13T05:48:10;9.52;;;2.50;;
55879;SDS011;41802;51.564;-1.838;2023-07-13T05:50:38;11.83;;;3.10;;
55879;SDS011;41802;51.564;-1.838;2023-07-13T05:53:06;12.95;;;2.80;;
55879;SDS011;41802;51.564;-1.838;2023-07-13T05:55:33;8.00;;;2.47;;
55879;SDS011;41802;51.564;-1.838;2023-07-13T05:58:02;7.22;;;2.40;;
55879;SDS011;41802;51.564;-1.838;2023-07-13T06:00:30;9.43;;;2.47;;
55879;SDS011;41802;51.564;-1.838;2023-07-13T06:02:58;7.73;;;2.27;;
55879;SDS011;41802;51.564;-1.838;2023-07-13T06:05:26;9.35;;;2.35;;
55879;SDS011;41802;51.564;-1.838;2023-07-13T06:07:55;10.35;;;2.67;;
55879;SDS011;41802;51.564;-1.838;2023-07-13T06:10:23;8.80;;;2.65;;
55879;SDS011;41802;51.564;-1.838;2023-07-13T06:12:51;9.43;;;2.70;;
55879;SDS011;41802;51.564;-1.838;2023-07-13T06:15:20;9.47;;;2.27;;
55879;SDS011;41802;51.564;-1.838;2023-07-13T06:17:48;12.65;;;2.70;;
55879;SDS011;41802;51.564;-1.838;2023-07-13T06:20:16;8.15;;;2.35;;
55879;SDS011;41802;51.564;-1.838;2023-07-13T06:22:44;8.55;;;2.67;;
55879;SDS011;41802;51.564;-1.838;2023-07-13T06:25:12;12.43;;;2.92;;
55879;SDS011;41802;51.564;-1.838;2023-07-13T06:27:39;7.60;;;2.63;;
55879;SDS011;41802;51.564;-1.838;2023-07-13T06:30:08;8.57;;;2.97;;
55879;SDS011;41802;51.564;-1.838;2023-07-13T06:32:37;8.05;;;2.70;;
55879;SDS011;41802;51.564;-1.838;2023-07-13T06:35:07;8.05;;;2.53;;
55879;SDS011;41802;51.564;-1.838;2023-07-13T06:37:35;6.30;;;2.72;;
55879;SDS011;41802;51.564;-1.838;2023-07-13T06:40:02;6.17;;;2.17;;
55879;SDS011;41802;51.564;-1.838;2023-07-13T06:42:30;8.73;;;2.25;;
55879;SDS011;41802;51.564;-1.838;2023-07-13T06:44:59;9.85;;;2.35;;
55879;SDS011;41802;51.564;-1.838;2023-07-13T06:47:27;9.02;;;2.40;;
55879;SDS011;41802;51.564;-1.838;2023-07-13T06:49:59;9.15;;;2.42;;
55879;SDS011;41802;51.564;-1.838;2023-07-13T06:52:28;7.70;;;2.57;;
55879;SDS011;41802;51.564;-1.838;2023-07-13T06:54:56;6.93;;;1.80;;
55879;SDS011;41802;51.564;-1.838;2023-07-13T06:57:24;8.50;;;1.90;;
55879;SDS011;41802;51.564;-1.838;2023-07-13T06:59:52;9.98;;;1.85;;
55879;SDS011;41802;51.564;-1.838;2023-07-13T07:02:22;7.07;;;2.42;;
55879;SDS011;41802;51.564;-1.838;2023-07-13T07:04:50;10.33;;;1.90;;
55879;SDS011;41802;51.564;-1.838;2023-07-13T07:07:19;9.82;;;2.65;;
55879;SDS011;41802;51.564;-1.838;2023-07-13T07:09:47;10.32;;;2.30;;
55879;SDS011;41802;51.564;-1.838;2023-07-13T07:12:15;9.23;;;2.53;;
55879;SDS011;41802;51.564;-1.838;2023-07-13T07:14:42;7.28;;;2.10;;
55879;SDS011;41802;51.564;-1.838;2023-07-13T07:17:11;9.03;;;1.97;;
55879;SDS011;41802;51.564;-1.838;2023-07-13T07:19:39;8.00;;;1.98;;
55879;SDS011;41802;51.564;-1.838;2023-07-13T07:22:07;9.40;;;2.30;;
55879;SDS011;41802;51.564;-1.838;2023-07-13T07:24:36;6.50;;;1.60;;
55879;SDS011;41802;51.564;-1.838;2023-07-13T07:27:05;7.75;;;2.20;;
55879;SDS011;41802;51.564;-1.838;2023-07-13T07:29:35;6.93;;;2.00;;
55879;SDS011;41802;51.564;-1.838;2023-07-13T07:32:06;6.72;;;2.08;;
55879;SDS011;41802;51.564;-1.838;2023-07-13T07:34:54;5.32;;;1.80;;
55879;SDS011;41802;51.564;-1.838;2023-07-13T07:37:22;10.27;;;2.88;;
55879;SDS011;41802;51.564;-1.838;2023-07-13T07:40:11;7.07;;;2.25;;
55879;SDS011;41802;51.564;-1.838;2023-07-13T07:42:42;5.20;;;2.00;;
55879;SDS011;41802;51.564;-1.838;2023-07-13T07:45:09;6.25;;;2.28;;
55879;SDS011;41802;51.564;-1.838;2023-07-13T07:47:38;9.80;;;2.50;;
55879;SDS011;41802;51.564;-1.838;2023-07-13T07:50:06;7.18;;;1.80;;
55879;SDS011;41802;51.564;-1.838;2023-07-13T07:52:34;9.45;;;2.22;;
55879;SDS011;41802;51.564;-1.838;2023-07-13T07:55:01;7.50;;;1.90;;
55879;SDS011;41802;51.564;-1.838;2023-07-13T07:57:38;7.93;;;1.90;;
55879;SDS011;41802;51.564;-1.838;2023-07-13T08:00:09;9.15;;;2.95;;
55879;SDS011;41802;51.564;-1.838;2023-07-13T08:02:41;5.45;;;1.50;;
55879;SDS011;41802;51.564;-1.838;2023-07-13T08:05:29;6.28;;;1.75;;
55879;SDS011;41802;51.564;-1.838;2023-07-13T08:08:00;6.77;;;1.93;;
55879;SDS011;41802;51.564;-1.838;2023-07-13T08:10:32;8.25;;;1.80;;
55879;SDS011;41802;51.564;-1.838;2023-07-13T08:13:03;6.22;;;1.80;;
55879;SDS011;41802;51.564;-1.838;2023-07-13T08:15:34;7.73;;;2.07;;
55879;SDS011;41802;51.564;-1.838;2023-07-13T08:18:02;7.28;;;1.50;;
55879;SDS011;41802;51.564;-1.838;2023-07-13T08:20:30;7.95;;;2.17;;
55879;SDS011;41802;51.564;-1.838;2023-07-13T08:22:58;4.65;;;1.83;;
55879;SDS011;41802;51.564;-1.838;2023-07-13T08:25:26;6.97;;;1.48;;
55879;SDS011;41802;51.564;-1.838;2023-07-13T08:27:53;8.03;;;2.00;;
55879;SDS011;41802;51.564;-1.838;2023-07-13T08:30:23;7.65;;;2.63;;
55879;SDS011;41802;51.564;-1.838;2023-07-13T08:32:50;10.77;;;2.25;;
55879;SDS011;41802;51.564;-1.838;2023-07-13T08:35:18;10.60;;;2.47;;
55879;SDS011;41802;51.564;-1.838;2023-07-13T08:37:46;10.25;;;2.28;;
55879;SDS011;41802;51.564;-1.838;2023-07-13T08:40:13;8.80;;;2.37;;
55879;SDS011;41802;51.564;-1.838;2023-07-13T08:42:42;9.30;;;1.70;;
55879;SDS011;41802;51.564;-1.838;2023-07-13T08:45:17;5.65;;;2.00;;
55879;SDS011;41802;51.564;-1.838;2023-07-13T08:47:50;8.60;;;2.03;;
55879;SDS011;41802;51.564;-1.838;2023-07-13T08:50:21;9.38;;;2.42;;
55879;SDS011;41802;51.564;-1.838;2023-07-13T08:52:51;6.70;;;2.23;;
55879;SDS011;41802;51.564;-1.838;2023-07-13T08:55:20;7.03;;;1.92;;
55879;SDS011;41802;51.564;-1.838;2023-07-13T08:57:50;6.57;;;1.77;;
55879;SDS011;41802;51.564;-1.838;2023-07-13T09:00:22;4.45;;;1.60;;
55879;SDS011;41802;51.564;-1.838;2023-07-13T09:02:52;8.27;;;1.90;;
55879;SDS011;41802;51.564;-1.838;2023-07-13T09:05:22;6.40;;;1.80;;
55879;SDS011;41802;51.564;-1.838;2023-07-13T09:08:02;9.40;;;2.05;;
55879;SDS011;41802;51.564;-1.838;2023-07-13T09:10:35;5.70;;;1.75;;
55879;SDS011;41802;51.564;-1.838;2023-07-13T09:13:18;5.10;;;1.60;;
55879;SDS011;41802;51.564;-1.838;2023-07-13T09:15:50;6.22;;;1.60;;
55879;SDS011;41802;51.564;-1.838;2023-07-13T09:18:21;5.47;;;1.30;;
55879;SDS011;41802;51.564;-1.838;2023-07-13T09:20:52;6.00;;;1.67;;
55879;SDS011;41802;51.564;-1.838;2023-07-13T09:23:22;5.45;;;1.70;;
55879;SDS011;41802;51.564;-1.838;2023-07-13T09:25:51;6.90;;;1.50;;
55879;SDS011;41802;51.564;-1.838;2023-07-13T09:28:23;5.32;;;1.23;;
55879;SDS011;41802;51.564;-1.838;2023-07-13T09:30:52;6.23;;;1.40;;
55879;SDS011;41802;51.564;-1.838;2023-07-13T09:33:23;3.80;;;1.13;;
55879;SDS011;41802;51.564;-1.838;2023-07-13T09:35:53;4.60;;;1.40;;
55879;SDS011;41802;51.564;-1.838;2023-07-13T09:38:26;6.55;;;1.10;;
55879;SDS011;41802;51.564;-1.838;2023-07-13T09:40:59;5.80;;;1.65;;
55879;SDS011;41802;51.564;-1.838;2023-07-13T09:43:30;5.40;;;1.53;;
55879;SDS011;41802;51.564;-1.838;2023-07-13T09:45:58;4.80;;;1.42;;
55879;SDS011;41802;51.564;-1.838;2023-07-13T09:48:34;4.60;;;1.20;;
55879;SDS011;41802;51.564;-1.838;2023-07-13T09:51:06;4.55;;;1.25;;
55879;SDS011;41802;51.564;-1.838;2023-07-13T09:53:35;4.03;;;1.40;;
55879;SDS011;41802;51.564;-1.838;2023-07-13T09:56:03;3.93;;;1.23;;
55879;SDS011;41802;51.564;-1.838;2023-07-13T09:58:31;4.90;;;1.40;;
55879;SDS011;41802;51.564;-1.838;2023-07-13T10:01:02;6.53;;;1.50;;
55879;SDS011;41802;51.564;-1.838;2023-07-13T10:03:36;4.50;;;1.30;;
55879;SDS011;41802;51.564;-1.838;2023-07-13T10:06:10;4.47;;;1.38;;
55879;SDS011;41802;51.564;-1.838;2023-07-13T10:08:39;6.23;;;1.60;;
55879;SDS011;41802;51.564;-1.838;2023-07-13T10:11:09;5.30;;;1.33;;
55879;SDS011;41802;51.564;-1.838;2023-07-13T10:13:40;7.55;;;1.67;;
55879;SDS011;41802;51.564;-1.838;2023-07-13T10:16:11;4.20;;;1.48;;
55879;SDS011;41802;51.564;-1.838;2023-07-13T10:18:42;5.13;;;1.15;;
55879;SDS011;41802;51.564;-1.838;2023-07-13T10:21:12;6.05;;;2.28;;
55879;SDS011;41802;51.564;-1.838;2023-07-13T10:23:44;5.00;;;1.80;;
55879;SDS011;41802;51.564;-1.838;2023-07-13T10:26:14;5.20;;;1.73;;
55879;SDS011;41802;51.564;-1.838;2023-07-13T10:28:43;6.18;;;1.70;;
55879;SDS011;41802;51.564;-1.838;2023-07-13T10:31:14;5.68;;;1.70;;
55879;SDS011;41802;51.564;-1.838;2023-07-13T10:33:44;6.70;;;1.75;;
55879;SDS011;41802;51.564;-1.838;2023-07-13T10:36:13;5.50;;;2.03;;
55879;SDS011;41802;51.564;-1.838;2023-07-13T10:38:46;5.40;;;1.88;;
55879;SDS011;41802;51.564;-1.838;2023-07-13T10:41:15;7.50;;;1.85;;
55879;SDS011;41802;51.564;-1.838;2023-07-13T10:43:45;8.00;;;1.48;;
55879;SDS011;41802;51.564;-1.838;2023-07-13T10:46:16;6.35;;;1.80;;
55879;SDS011;41802;51.564;-1.838;2023-07-13T10:48:48;7.00;;;2.20;;
55879;SDS011;41802;51.564;-1.838;2023-07-13T10:51:17;4.72;;;1.20;;
55879;SDS011;41802;51.564;-1.838;2023-07-13T10:53:48;5.70;;;1.42;;
55879;SDS011;41802;51.564;-1.838;2023-07-13T10:56:38;4.78;;;1.77;;
55879;SDS011;41802;51.564;-1.838;2023-07-13T10:59:25;4.78;;;1.63;;
55879;SDS011;41802;51.564;-1.838;2023-07-13T11:01:55;5.83;;;1.70;;
55879;SDS011;41802;51.564;-1.838;2023-07-13T11:04:25;6.65;;;2.42;;
55879;SDS011;41802;51.564;-1.838;2023-07-13T11:06:56;6.43;;;2.10;;
55879;SDS011;41802;51.564;-1.838;2023-07-13T11:09:31;6.68;;;1.40;;
55879;SDS011;41802;51.564;-1.838;2023-07-13T11:12:02;5.38;;;1.75;;
55879;SDS011;41802;51.564;-1.838;2023-07-13T11:14:31;7.13;;;1.63;;
55879;SDS011;41802;51.564;-1.838;2023-07-13T11:16:59;5.22;;;1.67;;
55879;SDS011;41802;51.564;-1.838;2023-07-13T11:19:47;5.63;;;1.70;;
55879;SDS011;41802;51.564;-1.838;2023-07-13T11:22:23;7.47;;;2.10;;
55879;SDS011;41802;51.564;-1.838;2023-07-13T11:24:59;6.85;;;1.52;;
55879;SDS011;41802;51.564;-1.838;2023-07-13T11:27:35;6.20;;;1.90;;
55879;SDS011;41802;51.564;-1.838;2023-07-13T11:30:07;8.45;;;2.20;;
55879;SDS011;41802;51.564;-1.838;2023-07-13T11:32:36;6.32;;;1.80;;
55879;SDS011;41802;51.564;-1.838;2023-07-13T11:35:03;6.25;;;1.77;;
55879;SDS011;41802;51.564;-1.838;2023-07-13T11:37:33;5.40;;;1.60;;
55879;SDS011;41802;51.564;-1.838;2023-07-13T11:40:01;4.83;;;1.23;;
55879;SDS011;41802;51.564;-1.838;2023-07-13T11:42:31;6.57;;;1.35;;
55879;SDS011;41802;51.564;-1.838;2023-07-13T11:45:00;5.90;;;1.70;;
55879;SDS011;41802;51.564;-1.838;2023-07-13T11:47:39;4.32;;;1.50;;
55879;SDS011;41802;51.564;-1.838;2023-07-13T11:50:16;4.38;;;1.45;;
55879;SDS011;41802;51.564;-1.838;2023-07-13T11:52:45;7.70;;;3.20;;
55879;SDS011;41802;51.564;-1.838;2023-07-13T11:55:16;9.40;;;4.40;;
55879;SDS011;41802;51.564;-1.838;2023-07-13T11:57:45;5.25;;;1.38;;
55879;SDS011;41802;51.564;-1.838;2023-07-13T12:00:16;5.05;;;1.70;;
55879;SDS011;41802;51.564;-1.838;2023-07-13T12:02:46;4.78;;;1.25;;
55879;SDS011;41802;51.564;-1.838;2023-07-13T12:05:15;5.27;;;1.43;;
55879;SDS011;41802;51.564;-1.838;2023-07-13T12:07:44;5.32;;;1.50;;
55879;SDS011;41802;51.564;-1.838;2023-07-13T12:10:17;4.32;;;1.40;;
55879;SDS011;41802;51.564;-1.838;2023-07-13T12:12:46;7.18;;;1.42;;
55879;SDS011;41802;51.564;-1.838;2023-07-13T12:15:16;5.45;;;1.65;;
55879;SDS011;41802;51.564;-1.838;2023-07-13T12:17:43;5.47;;;1.37;;
55879;SDS011;41802;51.564;-1.838;2023-07-13T12:20:20;5.63;;;1.80;;
55879;SDS011;41802;51.564;-1.838;2023-07-13T12:22:49;4.22;;;1.50;;
55879;SDS011;41802;51.564;-1.838;2023-07-13T12:25:17;4.55;;;1.35;;
55879;SDS011;41802;51.564;-1.838;2023-07-13T12:27:47;5.80;;;1.45;;
55879;SDS011;41802;51.564;-1.838;2023-07-13T12:30:24;4.47;;;0.97;;
55879;SDS011;41802;51.564;-1.838;2023-07-13T12:32:56;5.25;;;1.73;;
55879;SDS011;41802;51.564;-1.838;2023-07-13T12:35:28;4.82;;;1.30;;
55879;SDS011;41802;51.564;-1.838;2023-07-13T12:37:59;3.70;;;1.10;;
55879;SDS011;41802;51.564;-1.838;2023-07-13T12:40:29;4.97;;;1.77;;
55879;SDS011;41802;51.564;-1.838;2023-07-13T12:43:02;4.38;;;0.98;;
55879;SDS011;41802;51.564;-1.838;2023-07-13T12:45:34;5.80;;;1.20;;
55879;SDS011;41802;51.564;-1.838;2023-07-13T12:48:03;5.55;;;1.70;;
55879;SDS011;41802;51.564;-1.838;2023-07-13T12:50:36;9.27;;;1.87;;
55879;SDS011;41802;51.564;-1.838;2023-07-13T12:53:05;6.53;;;1.35;;
55879;SDS011;41802;51.564;-1.838;2023-07-13T12:55:40;7.05;;;1.48;;
55879;SDS011;41802;51.564;-1.838;2023-07-13T12:58:09;4.03;;;1.05;;
55879;SDS011;41802;51.564;-1.838;2023-07-13T13:00:47;4.28;;;1.27;;
55879;SDS011;41802;51.564;-1.838;2023-07-13T13:03:18;6.57;;;1.50;;
55879;SDS011;41802;51.564;-1.838;2023-07-13T13:05:59;3.80;;;1.10;;
55879;SDS011;41802;51.564;-1.838;2023-07-13T13:08:29;4.85;;;1.90;;
55879;SDS011;41802;51.564;-1.838;2023-07-13T13:10:57;6.40;;;1.10;;
55879;SDS011;41802;51.564;-1.838;2023-07-13T13:13:25;4.45;;;1.33;;
55879;SDS011;41802;51.564;-1.838;2023-07-13T13:15:54;4.17;;;1.37;;
55879;SDS011;41802;51.564;-1.838;2023-07-13T13:18:23;4.60;;;1.17;;
55879;SDS011;41802;51.564;-1.838;2023-07-13T13:20:51;4.25;;;1.20;;
55879;SDS011;41802;51.564;-1.838;2023-07-13T13:23:19;5.22;;;1.33;;
55879;SDS011;41802;51.564;-1.838;2023-07-13T13:25:49;5.10;;;1.30;;
55879;SDS011;41802;51.564;-1.838;2023-07-13T13:28:20;4.77;;;1.10;;
55879;SDS011;41802;51.564;-1.838;2023-07-13T13:30:49;4.22;;;1.40;;
55879;SDS011;41802;51.564;-1.838;2023-07-13T13:33:19;5.22;;;1.42;;
55879;SDS011;41802;51.564;-1.838;2023-07-13T13:35:48;4.30;;;1.20;;
55879;SDS011;41802;51.564;-1.838;2023-07-13T13:38:16;3.85;;;1.23;;
55879;SDS011;41802;51.564;-1.838;2023-07-13T13:40:45;4.83;;;1.00;;
55879;SDS011;41802;51.564;-1.838;2023-07-13T13:43:16;7.45;;;1.55;;
55879;SDS011;41802;51.564;-1.838;2023-07-13T13:45:44;4.70;;;1.58;;
55879;SDS011;41802;51.564;-1.838;2023-07-13T13:48:16;4.22;;;1.15;;
55879;SDS011;41802;51.564;-1.838;2023-07-13T13:50:46;4.68;;;1.50;;
55879;SDS011;41802;51.564;-1.838;2023-07-13T13:53:14;6.63;;;1.47;;
55879;SDS011;41802;51.564;-1.838;2023-07-13T13:55:42;4.47;;;1.23;;
55879;SDS011;41802;51.564;-1.838;2023-07-13T13:58:10;5.05;;;1.35;;
55879;SDS011;41802;51.564;-1.838;2023-07-13T14:00:37;4.20;;;1.27;;
55879;SDS011;41802;51.564;-1.838;2023-07-13T14:03:09;6.10;;;1.65;;
55879;SDS011;41802;51.564;-1.838;2023-07-13T14:05:44;4.20;;;1.40;;
55879;SDS011;41802;51.564;-1.838;2023-07-13T14:08:16;4.28;;;1.27;;
55879;SDS011;41802;51.564;-1.838;2023-07-13T14:10:45;5.20;;;1.63;;
55879;SDS011;41802;51.564;-1.838;2023-07-13T14:13:15;4.88;;;1.55;;
55879;SDS011;41802;51.564;-1.838;2023-07-13T14:15:45;5.20;;;1.00;;
55879;SDS011;41802;51.564;-1.838;2023-07-13T14:18:13;7.03;;;2.13;;
55879;SDS011;41802;51.564;-1.838;2023-07-13T14:20:44;6.35;;;1.73;;
55879;SDS011;41802;51.564;-1.838;2023-07-13T14:23:12;4.53;;;1.60;;
55879;SDS011;41802;51.564;-1.838;2023-07-13T14:25:41;4.95;;;1.48;;
55879;SDS011;41802;51.564;-1.838;2023-07-13T14:28:14;4.28;;;1.13;;
55879;SDS011;41802;51.564;-1.838;2023-07-13T14:30:45;4.33;;;1.40;;
55879;SDS011;41802;51.564;-1.838;2023-07-13T14:33:13;4.10;;;1.50;;
55879;SDS011;41802;51.564;-1.838;2023-07-13T14:35:41;6.45;;;1.45;;
55879;SDS011;41802;51.564;-1.838;2023-07-13T14:38:10;5.22;;;1.45;;
55879;SDS011;41802;51.564;-1.838;2023-07-13T14:40:39;5.72;;;0.93;;
55879;SDS011;41802;51.564;-1.838;2023-07-13T14:43:11;4.87;;;1.33;;
55879;SDS011;41802;51.564;-1.838;2023-07-13T14:45:40;4.95;;;1.40;;
55879;SDS011;41802;51.564;-1.838;2023-07-13T14:48:14;5.47;;;1.83;;
55879;SDS011;41802;51.564;-1.838;2023-07-13T14:50:42;5.28;;;1.40;;